Saint Paul, MN

07:38 CDT le 25 octobre 2014 (GMT -0500)
Saint Paul Downtown-Holman | Change Station
CLOSE
Current Station
Aéroport
Location: St. Paul,
Altitude: 702 ft
Stations météo à proximité

Alt. 702 ft 44.93 °N, 93.06 °W | Updated 45 minutes ago

Ciel dégagé
Ciel dégagé
51 ° F
Paraît 51 ° F
N
8
Vent Variable Vent de NO

Aujourd'hui
Haut(e) -- | Bas -- ° F
--% Risque de précip.
Hier
Haut(e) -- | Bas -- ° F
Precip. -- pouce
7:41 AM 6:10 PM
Lune montante, 3% visible
Pression 29.99 pouce
Visibilité 10.0 Miles terrestres
Nuages Ciel dégagé
Point de rosée 35 ° F
Humidité 54%
Précipitations 0.00 pouce
Profondeur de la couche neigeuse Non disponible.
UV 0 sur 12
Pollen 2.10 sur 12
Ozone Bon
PM2.5 Bon
Flu Activity Sporadic
METAR KSTP 251153Z 31007KT 10SM CLR 11/02 A2999 RMK AO2 SLP156 T01060017 10144 20100 51014

More Conditions Fewer Conditions

Pression 29.99 pouce
Visibilité 10.0 Miles terrestres
Nuages Ciel dégagé
Point de rosée 35 ° F
Humidité 54%
Précipitations 0.00 pouce
Profondeur de la couche neigeuse Non disponible.
UV 0 sur 12
Pollen 2.10 sur 12
Ozone Bon
PM2.5 Bon
Flu Activity Sporadic
METAR KSTP 251153Z 31007KT 10SM CLR 11/02 A2999 RMK AO2 SLP156 T01060017 10144 20100 51014

More Conditions Fewer Conditions

10-Day Weather Forecast

Almanac

Astronomie

Oct. 25, 2014 Lever Coucher
Temps réel 07:41 CDT 18:10 CDT
Crépuscule civil 07:11 CDT 18:40 CDT
Crépuscule nautique 06:36 CDT 19:15 CDT
Crépuscule astronomique 06:02 CDT 19:49 CDT
Lune 09:24 CDT 19:30 CDT
Durée de lumière visible 11h 29m
Longueur du jour
10h 29m
Tomorrow will be 2m 53s shorter.
Lune montante, 3% of the Moon is Illuminated
Aujourd'hui
Lune montante
Oct 30
Premier quartier
Nov 6
Pleine lune
Nov 14
Dernier quartier
Nov 22
Nouveau

Extrêmes aujourd'hui

State Highs State Lows

Community

WunderPhotos

Upload Photos

1,764,821 Photos téléchargées !

Nearby

Qualité de l'air

  Qualité de l'air Indice de la qualité de l'air Polluant
Hier Moyen
PM2.5
Hier Bon
OZONE
Actuel Bon
PM2.5
Actuel Bon
OZONE
samedi Bon
PM2.5
dimanche Moyen
PM2.5
lundi Bon
PM2.5
mardi Bon
PM2.5
mercredi Bon
PM2.5

Épaisseur de neige

Station Depth Altitude
Pas de nouvelles chutes de neige

Activité sismique

Ville Distance Mag. Time & Date
No recent earthquake activity has been reported nearby.
Minimum magnitude displayed is 2.5.

Températures des eaux côtières

Lieu Température
Aucun rapport de station

Stations météo à proximité